sensor_id;sensor_type;location;lat;lon;timestamp;pressure;altitude;pressure_sealevel;temperature;humidity
57290;BME280;43523;53.022;-1.178;2023-05-13T00:00:11;102164.24;;;5.37;100.00
57290;BME280;43523;53.022;-1.178;2023-05-13T00:01:13;102165.47;;;5.26;100.00
57290;BME280;43523;53.022;-1.178;2023-05-13T00:02:16;102165.34;;;5.52;100.00
57290;BME280;43523;53.022;-1.178;2023-05-13T00:03:18;102162.91;;;5.34;100.00
57290;BME280;43523;53.022;-1.178;2023-05-13T00:04:21;102161.74;;;5.26;100.00
57290;BME280;43523;53.022;-1.178;2023-05-13T00:05:23;102161.49;;;5.57;100.00
57290;BME280;43523;53.022;-1.178;2023-05-13T00:06:26;102155.89;;;5.21;100.00
57290;BME280;43523;53.022;-1.178;2023-05-13T00:07:28;102161.90;;;5.22;100.00
57290;BME280;43523;53.022;-1.178;2023-05-13T00:08:30;102156.84;;;4.98;100.00
57290;BME280;43523;53.022;-1.178;2023-05-13T00:09:33;102158.18;;;5.19;100.00
57290;BME280;43523;53.022;-1.178;2023-05-13T00:10:35;102158.19;;;5.26;100.00
57290;BME280;43523;53.022;-1.178;2023-05-13T00:11:38;102156.77;;;5.49;100.00
57290;BME280;43523;53.022;-1.178;2023-05-13T00:12:40;102158.23;;;5.30;100.00
57290;BME280;43523;53.022;-1.178;2023-05-13T00:13:43;102157.22;;;5.14;100.00
57290;BME280;43523;53.022;-1.178;2023-05-13T00:14:46;102156.97;;;5.00;100.00
57290;BME280;43523;53.022;-1.178;2023-05-13T00:15:48;102154.71;;;5.02;100.00
57290;BME280;43523;53.022;-1.178;2023-05-13T00:16:50;102152.95;;;4.97;100.00
57290;BME280;43523;53.022;-1.178;2023-05-13T00:17:53;102153.44;;;5.22;100.00
57290;BME280;43523;53.022;-1.178;2023-05-13T00:18:55;102148.57;;;5.40;100.00
57290;BME280;43523;53.022;-1.178;2023-05-13T00:19:58;102150.08;;;5.45;100.00
57290;BME280;43523;53.022;-1.178;2023-05-13T00:21:00;102146.56;;;5.52;100.00
57290;BME280;43523;53.022;-1.178;2023-05-13T00:22:02;102146.62;;;5.35;100.00
57290;BME280;43523;53.022;-1.178;2023-05-13T00:23:05;102146.96;;;4.99;100.00
57290;BME280;43523;53.022;-1.178;2023-05-13T00:24:07;102146.09;;;5.42;100.00
57290;BME280;43523;53.022;-1.178;2023-05-13T00:25:10;102147.74;;;5.29;100.00
57290;BME280;43523;53.022;-1.178;2023-05-13T00:26:12;102144.10;;;5.35;100.00
57290;BME280;43523;53.022;-1.178;2023-05-13T00:27:14;102139.94;;;5.51;100.00
57290;BME280;43523;53.022;-1.178;2023-05-13T00:28:18;102140.61;;;5.51;100.00
57290;BME280;43523;53.022;-1.178;2023-05-13T00:29:20;102139.92;;;4.77;100.00
57290;BME280;43523;53.022;-1.178;2023-05-13T00:30:23;102139.67;;;5.05;100.00
57290;BME280;43523;53.022;-1.178;2023-05-13T00:31:25;102137.75;;;5.19;100.00
57290;BME280;43523;53.022;-1.178;2023-05-13T00:32:28;102140.25;;;5.22;100.00
57290;BME280;43523;53.022;-1.178;2023-05-13T00:33:30;102138.54;;;5.00;100.00
57290;BME280;43523;53.022;-1.178;2023-05-13T00:34:32;102137.55;;;5.36;100.00
57290;BME280;43523;53.022;-1.178;2023-05-13T00:35:35;102138.44;;;5.02;100.00
57290;BME280;43523;53.022;-1.178;2023-05-13T00:36:37;102136.43;;;5.57;100.00
57290;BME280;43523;53.022;-1.178;2023-05-13T00:37:39;102136.39;;;4.89;100.00
57290;BME280;43523;53.022;-1.178;2023-05-13T00:38:41;102137.86;;;5.09;100.00
57290;BME280;43523;53.022;-1.178;2023-05-13T00:39:44;102135.29;;;5.17;100.00
57290;BME280;43523;53.022;-1.178;2023-05-13T00:40:47;102135.95;;;5.58;100.00
57290;BME280;43523;53.022;-1.178;2023-05-13T00:41:51;102135.53;;;5.20;100.00
57290;BME280;43523;53.022;-1.178;2023-05-13T00:42:54;102135.50;;;4.87;100.00
57290;BME280;43523;53.022;-1.178;2023-05-13T00:43:56;102133.74;;;5.28;100.00
57290;BME280;43523;53.022;-1.178;2023-05-13T00:44:58;102133.03;;;5.33;100.00
57290;BME280;43523;53.022;-1.178;2023-05-13T00:46:01;102131.85;;;5.35;100.00
57290;BME280;43523;53.022;-1.178;2023-05-13T00:47:04;102132.09;;;5.62;100.00
57290;BME280;43523;53.022;-1.178;2023-05-13T00:48:07;102127.87;;;5.43;100.00
57290;BME280;43523;53.022;-1.178;2023-05-13T00:49:09;102127.57;;;5.53;100.00
57290;BME280;43523;53.022;-1.178;2023-05-13T00:50:13;102125.07;;;5.59;100.00
57290;BME280;43523;53.022;-1.178;2023-05-13T00:51:17;102125.67;;;5.38;100.00
57290;BME280;43523;53.022;-1.178;2023-05-13T00:52:20;102120.35;;;4.92;100.00
57290;BME280;43523;53.022;-1.178;2023-05-13T00:53:22;102120.84;;;5.20;100.00
57290;BME280;43523;53.022;-1.178;2023-05-13T00:54:24;102117.51;;;4.81;100.00
57290;BME280;43523;53.022;-1.178;2023-05-13T00:55:26;102122.71;;;4.66;100.00
57290;BME280;43523;53.022;-1.178;2023-05-13T00:56:28;102117.16;;;4.85;100.00
57290;BME280;43523;53.022;-1.178;2023-05-13T00:57:31;102120.12;;;4.97;100.00
57290;BME280;43523;53.022;-1.178;2023-05-13T00:58:33;102121.54;;;5.10;100.00
57290;BME280;43523;53.022;-1.178;2023-05-13T00:59:35;102121.33;;;5.16;100.00
57290;BME280;43523;53.022;-1.178;2023-05-13T01:00:42;102121.83;;;4.70;100.00
57290;BME280;43523;53.022;-1.178;2023-05-13T01:01:54;102122.69;;;4.67;100.00
57290;BME280;43523;53.022;-1.178;2023-05-13T01:03:05;102122.67;;;4.98;100.00
57290;BME280;43523;53.022;-1.178;2023-05-13T01:04:19;102126.60;;;4.73;100.00
57290;BME280;43523;53.022;-1.178;2023-05-13T01:05:33;102128.56;;;5.02;100.00
57290;BME280;43523;53.022;-1.178;2023-05-13T01:06:47;102126.99;;;5.37;100.00
57290;BME280;43523;53.022;-1.178;2023-05-13T01:07:59;102130.13;;;5.05;100.00
57290;BME280;43523;53.022;-1.178;2023-05-13T01:09:13;102128.65;;;5.17;100.00
57290;BME280;43523;53.022;-1.178;2023-05-13T01:10:22;102130.43;;;5.13;100.00
57290;BME280;43523;53.022;-1.178;2023-05-13T01:11:31;102132.14;;;5.18;100.00
57290;BME280;43523;53.022;-1.178;2023-05-13T01:12:39;102133.29;;;5.23;100.00
57290;BME280;43523;53.022;-1.178;2023-05-13T01:13:45;102129.86;;;5.13;100.00
57290;BME280;43523;53.022;-1.178;2023-05-13T01:14:53;102132.31;;;4.92;100.00
57290;BME280;43523;53.022;-1.178;2023-05-13T01:16:00;102131.95;;;5.24;100.00
57290;BME280;43523;53.022;-1.178;2023-05-13T01:17:09;102134.80;;;4.86;100.00
57290;BME280;43523;53.022;-1.178;2023-05-13T01:18:16;102129.47;;;5.02;100.00
57290;BME280;43523;53.022;-1.178;2023-05-13T01:19:34;102130.38;;;4.86;100.00
57290;BME280;43523;53.022;-1.178;2023-05-13T01:20:41;102132.41;;;4.89;100.00
57290;BME280;43523;53.022;-1.178;2023-05-13T01:21:51;102129.17;;;4.83;100.00
57290;BME280;43523;53.022;-1.178;2023-05-13T01:22:53;102125.71;;;5.33;100.00
57290;BME280;43523;53.022;-1.178;2023-05-13T01:23:55;102129.58;;;4.76;100.00
57290;BME280;43523;53.022;-1.178;2023-05-13T01:24:58;102134.95;;;5.18;100.00
57290;BME280;43523;53.022;-1.178;2023-05-13T01:26:00;102133.69;;;4.66;100.00
57290;BME280;43523;53.022;-1.178;2023-05-13T01:27:03;102135.30;;;4.77;100.00
57290;BME280;43523;53.022;-1.178;2023-05-13T01:28:07;102132.01;;;4.88;100.00
57290;BME280;43523;53.022;-1.178;2023-05-13T01:29:09;102134.96;;;4.76;100.00
57290;BME280;43523;53.022;-1.178;2023-05-13T01:30:12;102132.69;;;4.71;100.00
57290;BME280;43523;53.022;-1.178;2023-05-13T01:31:15;102136.04;;;4.82;100.00
57290;BME280;43523;53.022;-1.178;2023-05-13T01:32:19;102131.59;;;4.69;100.00
57290;BME280;43523;53.022;-1.178;2023-05-13T01:33:22;102134.68;;;4.58;100.00
57290;BME280;43523;53.022;-1.178;2023-05-13T01:34:26;102138.42;;;4.84;100.00
57290;BME280;43523;53.022;-1.178;2023-05-13T01:35:31;102136.38;;;4.81;100.00
57290;BME280;43523;53.022;-1.178;2023-05-13T01:36:33;102136.05;;;5.03;100.00
57290;BME280;43523;53.022;-1.178;2023-05-13T01:37:36;102135.75;;;5.08;100.00
57290;BME280;43523;53.022;-1.178;2023-05-13T01:38:40;102132.96;;;5.20;100.00
57290;BME280;43523;53.022;-1.178;2023-05-13T01:39:42;102133.70;;;5.05;100.00
57290;BME280;43523;53.022;-1.178;2023-05-13T01:40:47;102133.72;;;4.94;100.00
57290;BME280;43523;53.022;-1.178;2023-05-13T01:41:50;102133.30;;;5.04;100.00
57290;BME280;43523;53.022;-1.178;2023-05-13T01:42:52;102133.77;;;4.74;100.00
57290;BME280;43523;53.022;-1.178;2023-05-13T01:43:55;102135.46;;;4.84;100.00
57290;BME280;43523;53.022;-1.178;2023-05-13T01:44:57;102137.95;;;4.98;100.00
57290;BME280;43523;53.022;-1.178;2023-05-13T01:46:00;102137.31;;;4.99;100.00
57290;BME280;43523;53.022;-1.178;2023-05-13T01:47:03;102138.34;;;4.94;100.00
57290;BME280;43523;53.022;-1.178;2023-05-13T01:48:05;102138.63;;;4.97;100.00
57290;BME280;43523;53.022;-1.178;2023-05-13T01:49:08;102135.47;;;4.82;100.00
57290;BME280;43523;53.022;-1.178;2023-05-13T01:50:10;102139.80;;;4.40;100.00
57290;BME280;43523;53.022;-1.178;2023-05-13T01:51:13;102137.15;;;4.60;100.00
57290;BME280;43523;53.022;-1.178;2023-05-13T01:52:15;102133.13;;;4.74;100.00
57290;BME280;43523;53.022;-1.178;2023-05-13T01:53:18;102133.45;;;4.80;100.00
57290;BME280;43523;53.022;-1.178;2023-05-13T01:54:21;102133.30;;;4.93;100.00
57290;BME280;43523;53.022;-1.178;2023-05-13T01:55:23;102130.64;;;4.90;100.00
57290;BME280;43523;53.022;-1.178;2023-05-13T01:56:26;102130.79;;;5.29;100.00
57290;BME280;43523;53.022;-1.178;2023-05-13T01:57:28;102134.48;;;4.79;100.00
57290;BME280;43523;53.022;-1.178;2023-05-13T01:58:30;102132.32;;;4.66;100.00
57290;BME280;43523;53.022;-1.178;2023-05-13T01:59:33;102130.74;;;4.72;100.00
57290;BME280;43523;53.022;-1.178;2023-05-13T02:00:35;102130.61;;;5.10;100.00
57290;BME280;43523;53.022;-1.178;2023-05-13T02:01:38;102132.94;;;5.20;100.00
57290;BME280;43523;53.022;-1.178;2023-05-13T02:02:40;102136.23;;;5.21;100.00
57290;BME280;43523;53.022;-1.178;2023-05-13T02:03:43;102133.73;;;5.01;100.00
57290;BME280;43523;53.022;-1.178;2023-05-13T02:04:50;102133.76;;;5.11;100.00
57290;BME280;43523;53.022;-1.178;2023-05-13T02:05:52;102134.98;;;5.24;100.00
57290;BME280;43523;53.022;-1.178;2023-05-13T02:06:55;102137.56;;;4.94;100.00
57290;BME280;43523;53.022;-1.178;2023-05-13T02:07:58;102137.15;;;5.20;100.00
57290;BME280;43523;53.022;-1.178;2023-05-13T02:09:00;102141.40;;;4.37;100.00
57290;BME280;43523;53.022;-1.178;2023-05-13T02:10:03;102140.13;;;4.89;100.00
57290;BME280;43523;53.022;-1.178;2023-05-13T02:11:06;102139.14;;;4.80;100.00
57290;BME280;43523;53.022;-1.178;2023-05-13T02:12:09;102141.22;;;4.63;100.00
57290;BME280;43523;53.022;-1.178;2023-05-13T02:13:12;102138.50;;;5.28;100.00
57290;BME280;43523;53.022;-1.178;2023-05-13T02:14:15;102138.82;;;5.17;100.00
57290;BME280;43523;53.022;-1.178;2023-05-13T02:15:18;102142.98;;;4.80;100.00
57290;BME280;43523;53.022;-1.178;2023-05-13T02:16:21;102143.34;;;4.62;100.00
57290;BME280;43523;53.022;-1.178;2023-05-13T02:17:23;102142.95;;;4.65;100.00
57290;BME280;43523;53.022;-1.178;2023-05-13T02:18:25;102145.34;;;4.81;100.00
57290;BME280;43523;53.022;-1.178;2023-05-13T02:19:28;102142.43;;;4.99;100.00
57290;BME280;43523;53.022;-1.178;2023-05-13T02:20:30;102143.09;;;4.99;100.00
57290;BME280;43523;53.022;-1.178;2023-05-13T02:21:33;102142.57;;;4.92;100.00
57290;BME280;43523;53.022;-1.178;2023-05-13T02:22:35;102143.45;;;4.61;100.00
57290;BME280;43523;53.022;-1.178;2023-05-13T02:23:37;102144.76;;;4.81;100.00
57290;BME280;43523;53.022;-1.178;2023-05-13T02:24:40;102140.94;;;4.96;100.00
57290;BME280;43523;53.022;-1.178;2023-05-13T02:25:42;102141.79;;;4.57;100.00
57290;BME280;43523;53.022;-1.178;2023-05-13T02:26:46;102146.45;;;4.80;100.00
57290;BME280;43523;53.022;-1.178;2023-05-13T02:27:48;102143.63;;;4.26;100.00
57290;BME280;43523;53.022;-1.178;2023-05-13T02:28:50;102144.30;;;5.04;100.00
57290;BME280;43523;53.022;-1.178;2023-05-13T02:29:53;102142.90;;;4.89;100.00
57290;BME280;43523;53.022;-1.178;2023-05-13T02:30:55;102141.94;;;5.02;100.00
57290;BME280;43523;53.022;-1.178;2023-05-13T02:31:57;102141.33;;;4.86;100.00
57290;BME280;43523;53.022;-1.178;2023-05-13T02:33:00;102143.23;;;5.10;100.00
57290;BME280;43523;53.022;-1.178;2023-05-13T02:34:02;102147.52;;;4.54;100.00
57290;BME280;43523;53.022;-1.178;2023-05-13T02:35:05;102146.71;;;4.88;100.00
57290;BME280;43523;53.022;-1.178;2023-05-13T02:36:07;102141.01;;;5.02;100.00
57290;BME280;43523;53.022;-1.178;2023-05-13T02:37:09;102144.39;;;4.99;100.00
57290;BME280;43523;53.022;-1.178;2023-05-13T02:38:11;102144.07;;;5.08;100.00
57290;BME280;43523;53.022;-1.178;2023-05-13T02:39:14;102145.09;;;4.97;100.00
57290;BME280;43523;53.022;-1.178;2023-05-13T02:40:17;102142.43;;;4.87;100.00
57290;BME280;43523;53.022;-1.178;2023-05-13T02:41:20;102142.68;;;4.57;100.00
57290;BME280;43523;53.022;-1.178;2023-05-13T02:42:22;102141.30;;;4.37;100.00
57290;BME280;43523;53.022;-1.178;2023-05-13T02:43:24;102139.48;;;4.30;100.00
57290;BME280;43523;53.022;-1.178;2023-05-13T02:44:27;102141.01;;;3.93;100.00
57290;BME280;43523;53.022;-1.178;2023-05-13T02:45:30;102140.05;;;4.20;100.00
57290;BME280;43523;53.022;-1.178;2023-05-13T02:46:32;102137.84;;;4.37;100.00
57290;BME280;43523;53.022;-1.178;2023-05-13T02:47:34;102138.22;;;4.42;100.00
57290;BME280;43523;53.022;-1.178;2023-05-13T02:48:37;102135.85;;;4.76;100.00
57290;BME280;43523;53.022;-1.178;2023-05-13T02:49:39;102133.12;;;4.79;100.00
57290;BME280;43523;53.022;-1.178;2023-05-13T02:50:41;102135.21;;;5.07;100.00
57290;BME280;43523;53.022;-1.178;2023-05-13T02:51:44;102133.36;;;4.85;100.00
57290;BME280;43523;53.022;-1.178;2023-05-13T02:52:47;102135.58;;;4.24;100.00
57290;BME280;43523;53.022;-1.178;2023-05-13T02:53:49;102132.02;;;4.77;100.00
57290;BME280;43523;53.022;-1.178;2023-05-13T02:54:51;102131.24;;;5.02;100.00
57290;BME280;43523;53.022;-1.178;2023-05-13T02:55:54;102130.67;;;5.00;100.00
57290;BME280;43523;53.022;-1.178;2023-05-13T02:56:56;102129.28;;;5.38;100.00
57290;BME280;43523;53.022;-1.178;2023-05-13T02:57:59;102128.24;;;5.28;100.00
57290;BME280;43523;53.022;-1.178;2023-05-13T02:59:01;102128.42;;;4.61;100.00
57290;BME280;43523;53.022;-1.178;2023-05-13T03:00:05;102129.49;;;5.06;100.00
57290;BME280;43523;53.022;-1.178;2023-05-13T03:01:08;102131.03;;;4.39;100.00
57290;BME280;43523;53.022;-1.178;2023-05-13T03:02:10;102130.20;;;4.61;100.00
57290;BME280;43523;53.022;-1.178;2023-05-13T03:03:13;102129.12;;;4.55;100.00
57290;BME280;43523;53.022;-1.178;2023-05-13T03:04:15;102130.57;;;3.82;100.00
57290;BME280;43523;53.022;-1.178;2023-05-13T03:05:18;102132.34;;;4.11;100.00
57290;BME280;43523;53.022;-1.178;2023-05-13T03:06:20;102133.73;;;4.01;100.00
57290;BME280;43523;53.022;-1.178;2023-05-13T03:07:23;102135.28;;;3.62;100.00
57290;BME280;43523;53.022;-1.178;2023-05-13T03:08:26;102134.83;;;4.09;100.00
57290;BME280;43523;53.022;-1.178;2023-05-13T03:09:28;102134.82;;;4.03;100.00
57290;BME280;43523;53.022;-1.178;2023-05-13T03:10:32;102129.81;;;3.93;100.00
57290;BME280;43523;53.022;-1.178;2023-05-13T03:11:34;102131.92;;;4.08;100.00
57290;BME280;43523;53.022;-1.178;2023-05-13T03:12:37;102131.73;;;4.59;100.00
57290;BME280;43523;53.022;-1.178;2023-05-13T03:13:39;102133.14;;;4.15;100.00
57290;BME280;43523;53.022;-1.178;2023-05-13T03:14:41;102131.06;;;4.59;100.00
57290;BME280;43523;53.022;-1.178;2023-05-13T03:15:44;102130.59;;;3.92;100.00
57290;BME280;43523;53.022;-1.178;2023-05-13T03:16:46;102127.36;;;4.46;100.00
57290;BME280;43523;53.022;-1.178;2023-05-13T03:17:49;102129.87;;;4.06;100.00
57290;BME280;43523;53.022;-1.178;2023-05-13T03:18:51;102131.70;;;3.76;100.00
57290;BME280;43523;53.022;-1.178;2023-05-13T03:19:54;102129.98;;;3.97;100.00
57290;BME280;43523;53.022;-1.178;2023-05-13T03:20:56;102126.80;;;3.94;100.00
57290;BME280;43523;53.022;-1.178;2023-05-13T03:21:59;102125.51;;;4.08;100.00
57290;BME280;43523;53.022;-1.178;2023-05-13T03:23:01;102121.03;;;4.72;100.00
57290;BME280;43523;53.022;-1.178;2023-05-13T03:24:04;102123.15;;;4.75;100.00
57290;BME280;43523;53.022;-1.178;2023-05-13T03:25:07;102128.85;;;4.52;100.00
57290;BME280;43523;53.022;-1.178;2023-05-13T03:26:09;102128.21;;;4.61;100.00
57290;BME280;43523;53.022;-1.178;2023-05-13T03:27:12;102129.37;;;3.89;100.00
57290;BME280;43523;53.022;-1.178;2023-05-13T03:28:15;102127.75;;;3.93;100.00
57290;BME280;43523;53.022;-1.178;2023-05-13T03:29:17;102121.62;;;4.23;100.00
57290;BME280;43523;53.022;-1.178;2023-05-13T03:30:19;102121.60;;;4.17;100.00
57290;BME280;43523;53.022;-1.178;2023-05-13T03:31:21;102121.35;;;4.53;100.00
57290;BME280;43523;53.022;-1.178;2023-05-13T03:32:24;102120.34;;;4.07;100.00
57290;BME280;43523;53.022;-1.178;2023-05-13T03:33:26;102127.12;;;3.65;100.00
57290;BME280;43523;53.022;-1.178;2023-05-13T03:34:29;102120.15;;;3.99;100.00
57290;BME280;43523;53.022;-1.178;2023-05-13T03:35:31;102124.78;;;4.06;100.00
57290;BME280;43523;53.022;-1.178;2023-05-13T03:36:34;102123.68;;;4.45;100.00
57290;BME280;43523;53.022;-1.178;2023-05-13T03:37:36;102124.92;;;4.41;100.00
57290;BME280;43523;53.022;-1.178;2023-05-13T03:38:38;102127.45;;;4.09;100.00
57290;BME280;43523;53.022;-1.178;2023-05-13T03:39:41;102123.63;;;4.24;100.00
57290;BME280;43523;53.022;-1.178;2023-05-13T03:40:44;102129.08;;;3.69;100.00
57290;BME280;43523;53.022;-1.178;2023-05-13T03:41:46;102127.95;;;3.27;100.00
57290;BME280;43523;53.022;-1.178;2023-05-13T03:42:49;102123.86;;;3.98;100.00
57290;BME280;43523;53.022;-1.178;2023-05-13T03:43:51;102123.15;;;3.68;100.00
57290;BME280;43523;53.022;-1.178;2023-05-13T03:44:53;102122.95;;;4.36;100.00
57290;BME280;43523;53.022;-1.178;2023-05-13T03:45:56;102120.17;;;4.60;100.00
57290;BME280;43523;53.022;-1.178;2023-05-13T03:46:58;102121.26;;;4.53;100.00
57290;BME280;43523;53.022;-1.178;2023-05-13T03:48:02;102125.69;;;3.66;100.00
57290;BME280;43523;53.022;-1.178;2023-05-13T03:49:04;102123.45;;;3.48;100.00
57290;BME280;43523;53.022;-1.178;2023-05-13T03:50:08;102123.28;;;4.00;100.00
57290;BME280;43523;53.022;-1.178;2023-05-13T03:51:10;102122.97;;;4.02;100.00
57290;BME280;43523;53.022;-1.178;2023-05-13T03:52:12;102119.26;;;3.72;100.00
57290;BME280;43523;53.022;-1.178;2023-05-13T03:53:16;102121.36;;;3.80;100.00
57290;BME280;43523;53.022;-1.178;2023-05-13T03:54:19;102122.76;;;3.69;100.00
57290;BME280;43523;53.022;-1.178;2023-05-13T03:55:20;102122.73;;;2.98;100.00
57290;BME280;43523;53.022;-1.178;2023-05-13T03:56:23;102121.73;;;3.27;100.00
57290;BME280;43523;53.022;-1.178;2023-05-13T03:57:25;102119.86;;;3.43;100.00
57290;BME280;43523;53.022;-1.178;2023-05-13T03:58:28;102118.25;;;3.91;100.00
57290;BME280;43523;53.022;-1.178;2023-05-13T03:59:30;102121.45;;;3.39;100.00
57290;BME280;43523;53.022;-1.178;2023-05-13T04:00:32;102119.95;;;3.19;100.00
57290;BME280;43523;53.022;-1.178;2023-05-13T04:01:35;102120.40;;;3.88;100.00
57290;BME280;43523;53.022;-1.178;2023-05-13T04:02:37;102119.36;;;3.70;100.00
57290;BME280;43523;53.022;-1.178;2023-05-13T04:03:40;102117.19;;;3.60;100.00
57290;BME280;43523;53.022;-1.178;2023-05-13T04:04:42;102118.06;;;3.92;100.00
57290;BME280;43523;53.022;-1.178;2023-05-13T04:05:46;102119.60;;;3.45;100.00
57290;BME280;43523;53.022;-1.178;2023-05-13T04:06:48;102121.02;;;3.66;100.00
57290;BME280;43523;53.022;-1.178;2023-05-13T04:07:51;102123.57;;;4.01;100.00
57290;BME280;43523;53.022;-1.178;2023-05-13T04:08:53;102123.39;;;3.85;100.00
57290;BME280;43523;53.022;-1.178;2023-05-13T04:09:55;102125.75;;;4.03;100.00
57290;BME280;43523;53.022;-1.178;2023-05-13T04:10:58;102123.29;;;4.12;100.00
57290;BME280;43523;53.022;-1.178;2023-05-13T04:12:00;102126.38;;;4.58;100.00
57290;BME280;43523;53.022;-1.178;2023-05-13T04:13:03;102127.17;;;3.72;100.00
57290;BME280;43523;53.022;-1.178;2023-05-13T04:14:05;102125.49;;;4.11;100.00
57290;BME280;43523;53.022;-1.178;2023-05-13T04:15:08;102127.76;;;4.28;100.00
57290;BME280;43523;53.022;-1.178;2023-05-13T04:16:11;102127.05;;;4.60;100.00
57290;BME280;43523;53.022;-1.178;2023-05-13T04:17:13;102126.79;;;4.72;100.00
57290;BME280;43523;53.022;-1.178;2023-05-13T04:18:16;102124.51;;;4.57;100.00
57290;BME280;43523;53.022;-1.178;2023-05-13T04:19:19;102124.53;;;4.78;100.00
57290;BME280;43523;53.022;-1.178;2023-05-13T04:20:21;102124.83;;;4.59;100.00
57290;BME280;43523;53.022;-1.178;2023-05-13T04:21:23;102128.50;;;3.51;100.00
57290;BME280;43523;53.022;-1.178;2023-05-13T04:22:25;102128.41;;;3.65;100.00
57290;BME280;43523;53.022;-1.178;2023-05-13T04:23:28;102126.07;;;4.09;100.00
57290;BME280;43523;53.022;-1.178;2023-05-13T04:24:30;102124.92;;;4.15;100.00
57290;BME280;43523;53.022;-1.178;2023-05-13T04:25:34;102127.25;;;4.53;100.00
57290;BME280;43523;53.022;-1.178;2023-05-13T04:26:37;102127.64;;;4.59;100.00
57290;BME280;43523;53.022;-1.178;2023-05-13T04:27:39;102127.56;;;4.29;100.00
57290;BME280;43523;53.022;-1.178;2023-05-13T04:28:42;102130.11;;;4.31;100.00
57290;BME280;43523;53.022;-1.178;2023-05-13T04:29:45;102130.74;;;4.33;100.00
57290;BME280;43523;53.022;-1.178;2023-05-13T04:30:48;102128.55;;;4.70;100.00
57290;BME280;43523;53.022;-1.178;2023-05-13T04:31:50;102129.71;;;4.67;100.00
57290;BME280;43523;53.022;-1.178;2023-05-13T04:32:52;102127.91;;;4.94;100.00
57290;BME280;43523;53.022;-1.178;2023-05-13T04:33:55;102129.56;;;4.64;100.00
57290;BME280;43523;53.022;-1.178;2023-05-13T04:34:57;102131.94;;;4.45;100.00
57290;BME280;43523;53.022;-1.178;2023-05-13T04:36:00;102131.42;;;4.56;100.00
57290;BME280;43523;53.022;-1.178;2023-05-13T04:37:02;102136.12;;;3.99;100.00
57290;BME280;43523;53.022;-1.178;2023-05-13T04:38:05;102138.65;;;3.97;100.00
57290;BME280;43523;53.022;-1.178;2023-05-13T04:39:08;102143.07;;;3.34;100.00
57290;BME280;43523;53.022;-1.178;2023-05-13T04:40:10;102144.89;;;3.56;100.00
57290;BME280;43523;53.022;-1.178;2023-05-13T04:41:12;102146.57;;;3.38;100.00
57290;BME280;43523;53.022;-1.178;2023-05-13T04:42:15;102144.65;;;3.24;100.00
57290;BME280;43523;53.022;-1.178;2023-05-13T04:43:19;102145.14;;;3.99;100.00
57290;BME280;43523;53.022;-1.178;2023-05-13T04:44:22;102145.97;;;3.18;100.00
57290;BME280;43523;53.022;-1.178;2023-05-13T04:45:24;102147.56;;;3.71;100.00
57290;BME280;43523;53.022;-1.178;2023-05-13T04:46:27;102148.42;;;3.88;100.00
57290;BME280;43523;53.022;-1.178;2023-05-13T04:47:29;102141.56;;;4.32;100.00
57290;BME280;43523;53.022;-1.178;2023-05-13T04:48:32;102146.03;;;3.27;100.00
57290;BME280;43523;53.022;-1.178;2023-05-13T04:49:34;102141.86;;;3.76;100.00
57290;BME280;43523;53.022;-1.178;2023-05-13T04:50:36;102142.92;;;3.77;100.00
57290;BME280;43523;53.022;-1.178;2023-05-13T04:51:38;102144.52;;;3.52;100.00
57290;BME280;43523;53.022;-1.178;2023-05-13T04:52:41;102143.41;;;4.02;100.00
57290;BME280;43523;53.022;-1.178;2023-05-13T04:53:43;102144.90;;;3.74;100.00
57290;BME280;43523;53.022;-1.178;2023-05-13T04:54:46;102139.53;;;3.94;100.00
57290;BME280;43523;53.022;-1.178;2023-05-13T04:55:49;102144.55;;;4.29;100.00
57290;BME280;43523;53.022;-1.178;2023-05-13T04:56:51;102149.14;;;3.43;100.00
57290;BME280;43523;53.022;-1.178;2023-05-13T04:57:54;102149.49;;;3.29;100.00
57290;BME280;43523;53.022;-1.178;2023-05-13T04:58:56;102152.30;;;3.35;100.00
57290;BME280;43523;53.022;-1.178;2023-05-13T04:59:57;102152.41;;;3.20;100.00
57290;BME280;43523;53.022;-1.178;2023-05-13T05:01:00;102150.48;;;3.24;100.00
57290;BME280;43523;53.022;-1.178;2023-05-13T05:02:02;102146.78;;;3.33;100.00
57290;BME280;43523;53.022;-1.178;2023-05-13T05:03:05;102147.98;;;3.98;100.00
57290;BME280;43523;53.022;-1.178;2023-05-13T05:04:07;102151.39;;;3.75;100.00
57290;BME280;43523;53.022;-1.178;2023-05-13T05:05:09;102145.31;;;4.28;100.00
57290;BME280;43523;53.022;-1.178;2023-05-13T05:06:12;102148.42;;;3.60;100.00
57290;BME280;43523;53.022;-1.178;2023-05-13T05:07:15;102149.29;;;3.63;100.00
57290;BME280;43523;53.022;-1.178;2023-05-13T05:08:18;102149.08;;;3.58;100.00
57290;BME280;43523;53.022;-1.178;2023-05-13T05:09:20;102148.76;;;3.42;100.00
57290;BME280;43523;53.022;-1.178;2023-05-13T05:10:23;102150.95;;;3.27;100.00
57290;BME280;43523;53.022;-1.178;2023-05-13T05:11:25;102152.11;;;3.46;100.00
57290;BME280;43523;53.022;-1.178;2023-05-13T05:12:28;102153.30;;;3.42;100.00
57290;BME280;43523;53.022;-1.178;2023-05-13T05:13:30;102157.65;;;3.31;100.00
57290;BME280;43523;53.022;-1.178;2023-05-13T05:14:33;102157.73;;;3.53;100.00
57290;BME280;43523;53.022;-1.178;2023-05-13T05:15:35;102157.18;;;3.54;100.00
57290;BME280;43523;53.022;-1.178;2023-05-13T05:16:38;102160.82;;;4.07;100.00
57290;BME280;43523;53.022;-1.178;2023-05-13T05:17:40;102162.29;;;4.28;100.00
57290;BME280;43523;53.022;-1.178;2023-05-13T05:18:42;102164.47;;;3.89;100.00
57290;BME280;43523;53.022;-1.178;2023-05-13T05:19:46;102162.76;;;4.39;100.00
57290;BME280;43523;53.022;-1.178;2023-05-13T05:20:48;102166.19;;;4.44;100.00
57290;BME280;43523;53.022;-1.178;2023-05-13T05:21:51;102166.68;;;3.85;100.00
57290;BME280;43523;53.022;-1.178;2023-05-13T05:22:53;102165.67;;;4.04;100.00
57290;BME280;43523;53.022;-1.178;2023-05-13T05:23:56;102166.70;;;3.92;100.00
57290;BME280;43523;53.022;-1.178;2023-05-13T05:24:58;102164.89;;;4.47;100.00